Home > Products > Valid Products > TAF

000
FTUS42 TJSJ 280906 AAA
TAFJSJ
TAF AMD
TJSJ 280906Z 2809/2906 17008KT P6SM FEW030
     FM281330 18012G20KT P6SM FEW035
     FM282230 17005KT P6SM SKC=



000
FTUS42 TJSJ 280906 AAA
TAFJSJ
TAF AMD
TJSJ 280906Z 2809/2906 17008KT P6SM FEW030
     FM281330 18012G20KT P6SM FEW035
     FM282230 17005KT P6SM SKC=



000
FTUS42 TJSJ 280520
TAFJSJ
TAF
TJSJ 280520Z 2806/2906 17004KT P6SM SKC
     FM281330 18012G20KT P6SM FEW035
     FM282230 17005KT P6SM SKC=



000
FTUS42 TJSJ 280520
TAFKPK
TAF
TKPK 280520Z 2806/2906 18006KT P6SM FEW020
     FM281300 18010KT P6SM FEW020
     FM290000 18007KT P6SM FEW020
      AMD NOT SKED TIL 281100=



000
FTUS42 TJSJ 280520
TAFNCM
TAF
TNCM 280520Z 2806/2906 13003KT P6SM FEW020
     FM281300 16010KT P6SM FEW020
     FM290000 13004KT P6SM FEW020=



000
FTUS42 TJSJ 280520
TAFIST
TAF
TIST 280520Z 2806/2906 15006KT P6SM SKC
     FM281300 16012KT P6SM FEW030
     FM282300 14006KT P6SM FEW025=



000
FTUS42 TJSJ 280520
TAFJPS
TAF
TJPS 280520Z 2806/2906 VRB03KT P6SM FEW030
     FM281300 17010KT P6SM FEW030
     FM282300 VRB03KT P6SM FEW030
      AMD NOT SKED 2812/2903=



000
FTUS42 TJSJ 280520
TAFJMZ
TAF
TJMZ 280520Z 2806/2906 VRB05KT P6SM SKC
     FM281330 25008KT P6SM FEW040
     FM282230 VRB05KT P6SM FEW030
      AMD NOT SKED=



000
FTUS42 TJSJ 280520
TAFISX
TAF
TISX 280520Z 2806/2906 13005KT P6SM FEW025
     FM281300 15011KT P6SM FEW030
     FM282300 13005KT P6SM FEW025=



000
FTUS42 TJSJ 280520
TAFJBQ
TAF
TJBQ 280520Z 2806/2906 13004KT P6SM SKC
     FM281330 02008KT P6SM FEW025
     FM282230 VRB04KT P6SM FEW020
      AMD NOT SKED TIL 281100=



000
FTUS42 TJSJ 280520
TAFNCM
TAF
TNCM 280520Z 2806/2906 13003KT P6SM FEW020
     FM281300 16010KT P6SM FEW020
     FM290000 13004KT P6SM FEW020=



000
FTUS42 TJSJ 280520
TAFKPK
TAF
TKPK 280520Z 2806/2906 18006KT P6SM FEW020
     FM281300 18010KT P6SM FEW020
     FM290000 18007KT P6SM FEW020
      AMD NOT SKED TIL 281100=



000
FTUS42 TJSJ 280520
TAFJSJ
TAF
TJSJ 280520Z 2806/2906 17004KT P6SM SKC
     FM281330 18012G20KT P6SM FEW035
     FM282230 17005KT P6SM SKC=



000
FTUS42 TJSJ 280520
TAFJMZ
TAF
TJMZ 280520Z 2806/2906 VRB05KT P6SM SKC
     FM281330 25008KT P6SM FEW040
     FM282230 VRB05KT P6SM FEW030
      AMD NOT SKED=



000
FTUS42 TJSJ 272344
TAFKPK
TAF
TKPK 272344Z 2800/2824 VRB05KT P6SM FEW020
     FM281300 18010KT P6SM FEW040
      AMD NOT SKED 2802/2811=



000
FTUS42 TJSJ 272344
TAFISX
TAF
TISX 272344Z 2800/2824 16005KT P6SM FEW025
     FM281300 14012KT P6SM FEW040
     FM282300 16005KT P6SM FEW025=



000
FTUS42 TJSJ 272344
TAFJMZ
TAF
TJMZ 272344Z 2800/2824 VRB05KT P6SM FEW030
     FM281330 17010KT P6SM FEW040
     FM282230 VRB05KT P6SM FEW030
      AMD NOT SKED=



000
FTUS42 TJSJ 272344
TAFJBQ
TAF
TJBQ 272344Z 2800/2824 VRB05KT P6SM FEW030
     FM281330 02010KT P6SM FEW040
     FM282230 VRB05KT P6SM FEW030
      AMD NOT SKED 2802/2811=



000
FTUS42 TJSJ 272344
TAFJPS
TAF
TJPS 272344Z 2800/2824 05005KT P6SM FEW030
     FM281330 17010KT P6SM FEW030 SCT050
     FM282230 05005KT P6SM FEW030
      AMD NOT SKED TIL 280300=



000
FTUS42 TJSJ 272344
TAFJSJ
TAF
TJSJ 272344Z 2800/2824 VRB05KT P6SM SKC
     FM281330 18012G18KT P6SM FEW040
     FM282230 VRB05KT P6SM SKC=



000
FTUS42 TJSJ 272344
TAFNCM
TAF
TNCM 272344Z 2800/2824 VRB05KT P6SM FEW020
     FM281300 16010KT P6SM FEW040=



000
FTUS42 TJSJ 272344
TAFIST
TAF
TIST 272344Z 2800/2824 18005KT P6SM FEW025
     FM281300 16012KT P6SM FEW030
     FM282300 18005KT P6SM FEW025=



000
FTUS42 TJSJ 271738
TAFKPK
TAF
TKPK 271738Z 2718/2818 18011KT P6SM FEW024
     FM272230 VRB03KT P6SM FEW019
     FM281450 13010KT P6SM FEW022
      AMD NOT SKED 2802/2811=



000
FTUS42 TJSJ 271738
TAFJBQ
TAF
TJBQ 271738Z 2718/2818 03010KT P6SM FEW030
     FM272300 VRB04KT P6SM SKC
     FM281450 34007KT P6SM FEW030
      AMD NOT SKED 2802/2811=



000
FTUS42 TJSJ 271738
TAFNCM
TAF
TNCM 271738Z 2718/2818 17012G18KT P6SM FEW024
     FM272300 VRB03KT P6SM FEW019
     FM281450 16010KT P6SM SCT020=



000
FTUS42 TJSJ 271738
TAFIST
TAF
TIST 271738Z 2718/2818 15012G20KT P6SM SCT030
     FM272300 12008KT P6SM FEW030
     FM281450 15014KT P6SM SCT030=



000
FTUS42 TJSJ 271738
TAFJSJ
TAF
TJSJ 271738Z 2718/2818 18012G20KT P6SM SCT030
     FM272230 12005KT P6SM FEW030
     FM280200 VRB03KT P6SM SKC
     FM281450 12011KT P6SM FEW030=



000
FTUS42 TJSJ 271738
TAFJPS
TAF
TJPS 271738Z 2718/2818 16010KT P6SM SCT030
     FM272230 VRB03KT P6SM FEW030
     FM280300 00000KT P6SM SKC
     FM281500 17011KT P6SM FEW030
      AMD NOT SKED TIL 280300=



000
FTUS42 TJSJ 271738
TAFISX
TAF
TISX 271738Z 2718/2818 14012G20KT P6SM SCT025
     FM272300 11008KT P6SM FEW030
     FM281450 15014KT P6SM SCT030=



000
FTUS42 TJSJ 271738
TAFJSJ
TAF
TJSJ 271738Z 2718/2818 18012G20KT P6SM SCT030
     FM272230 12005KT P6SM FEW030
     FM280200 VRB03KT P6SM SKC
     FM281450 12011KT P6SM FEW030=



000
FTUS42 TJSJ 271738
TAFJBQ
TAF
TJBQ 271738Z 2718/2818 03010KT P6SM FEW030
     FM272300 VRB04KT P6SM SKC
     FM281450 34007KT P6SM FEW030
      AMD NOT SKED 2802/2811=



000
FTUS42 TJSJ 271738
TAFIST
TAF
TIST 271738Z 2718/2818 15012G20KT P6SM SCT030
     FM272300 12008KT P6SM FEW030
     FM281450 15014KT P6SM SCT030=



000
FTUS42 TJSJ 271738
TAFNCM
TAF
TNCM 271738Z 2718/2818 17012G18KT P6SM FEW024
     FM272300 VRB03KT P6SM FEW019
     FM281450 16010KT P6SM SCT020=



000
FTUS42 TJSJ 271738
TAFKPK
TAF
TKPK 271738Z 2718/2818 18011KT P6SM FEW024
     FM272230 VRB03KT P6SM FEW019
     FM281450 13010KT P6SM FEW022
      AMD NOT SKED 2802/2811=



000
FTUS42 TJSJ 271738
TAFJPS
TAF
TJPS 271738Z 2718/2818 16010KT P6SM SCT030
     FM272230 VRB03KT P6SM FEW030
     FM280300 00000KT P6SM SKC
     FM281500 17011KT P6SM FEW030
      AMD NOT SKED TIL 280300=



000
FTUS42 TJSJ 271738
TAFISX
TAF
TISX 271738Z 2718/2818 14012G20KT P6SM SCT025
     FM272300 11008KT P6SM FEW030
     FM281450 15014KT P6SM SCT030=



000
FTUS42 TJSJ 271738
TAFJMZ
TAF
TJMZ 271738Z 2718/2818 26009KT P6SM FEW030
     FM272230 VRB04KT P6SM FEW040
     FM280200 00000KT P6SM SKC
     FM281450 23007KT P6SM FEW030
      AMD NOT SKED=



000
FTUS42 TJSJ 271738
TAFJMZ
TAF
TJMZ 271738Z 2718/2818 26009KT P6SM FEW030
     FM272230 VRB04KT P6SM FEW040
     FM280200 00000KT P6SM SKC
     FM281450 23007KT P6SM FEW030
      AMD NOT SKED=



000
FTUS42 TJSJ 271139
TAFJBQ
TAF
TJBQ 271139Z 2712/2812 VRB03KT P6SM SKC
     FM271400 02008KT P6SM FEW040
     FM272300 VRB03KT P6SM FEW040
      AMD NOT SKED 2802/2811=



000
FTUS42 TJSJ 271139
TAFKPK
TAF
TKPK 271139Z 2712/2812 18009KT P6SM FEW022
     FM272230 VRB04KT P6SM FEW024
      AMD NOT SKED 2802/2811=



000
FTUS42 TJSJ 271139
TAFISX
TAF
TISX 271139Z 2712/2812 14005KT P6SM FEW020
     FM271400 16011KT P6SM FEW020
     FM272300 09005KT P6SM FEW020=



000
FTUS42 TJSJ 271139
TAFIST
TAF
TIST 271139Z 2712/2812 15008KT P6SM FEW018
     FM271400 16012KT P6SM FEW030
     FM272300 14005KT P6SM FEW025=



000
FTUS42 TJSJ 271139
TAFNCM
TAF
TNCM 271139Z 2712/2812 15008KT P6SM FEW022
     FM272300 VRB04KT P6SM FEW022=



000
FTUS42 TJSJ 271139
TAFJPS
TAF
TJPS 271139Z 2712/2812 VRB03KT P6SM FEW040
     FM271300 16010KT P6SM FEW030
     FM272200 VRB04KT P6SM FEW030
      AMD NOT SKED TIL 280300=



000
FTUS42 TJSJ 271139
TAFJSJ
TAF
TJSJ 271139Z 2712/2812 13003KT P6SM FEW030
     FM271500 17012G20KT P6SM SCT030
     FM272230 11004KT P6SM FEW030=



000
FTUS42 TJSJ 271139
TAFJMZ
TAF
TJMZ 271139Z 2712/2812 VRB04KT P6SM SKC
     FM271600 26010KT P6SM FEW040
     FM272200 VRB04KT P6SM FEW040
      AMD NOT SKED=



000
FTUS42 TJSJ 271139
TAFJPS
TAF
TJPS 271139Z 2712/2812 VRB03KT P6SM FEW040
     FM271300 16010KT P6SM FEW030
     FM272200 VRB04KT P6SM FEW030
      AMD NOT SKED TIL 280300=



000
FTUS42 TJSJ 271139
TAFJSJ
TAF
TJSJ 271139Z 2712/2812 13003KT P6SM FEW030
     FM271500 17012G20KT P6SM SCT030
     FM272230 11004KT P6SM FEW030=



000
FTUS42 TJSJ 271139
TAFISX
TAF
TISX 271139Z 2712/2812 14005KT P6SM FEW020
     FM271400 16011KT P6SM FEW020
     FM272300 09005KT P6SM FEW020=



000
FTUS42 TJSJ 271139
TAFIST
TAF
TIST 271139Z 2712/2812 15008KT P6SM FEW018
     FM271400 16012KT P6SM FEW030
     FM272300 14005KT P6SM FEW025=



000
FTUS42 TJSJ 271139
TAFJMZ
TAF
TJMZ 271139Z 2712/2812 VRB04KT P6SM SKC
     FM271600 26010KT P6SM FEW040
     FM272200 VRB04KT P6SM FEW040
      AMD NOT SKED=



000
FTUS42 TJSJ 271139
TAFJBQ
TAF
TJBQ 271139Z 2712/2812 VRB03KT P6SM SKC
     FM271400 02008KT P6SM FEW040
     FM272300 VRB03KT P6SM FEW040
      AMD NOT SKED 2802/2811=



000
FTUS42 TJSJ 271139
TAFKPK
TAF
TKPK 271139Z 2712/2812 18009KT P6SM FEW022
     FM272230 VRB04KT P6SM FEW024
      AMD NOT SKED 2802/2811=



000
FTUS42 TJSJ 271139
TAFNCM
TAF
TNCM 271139Z 2712/2812 15008KT P6SM FEW022
     FM272300 VRB04KT P6SM FEW022=



000
FTUS42 TJSJ 270530
TAFISX
TAF
TISX 270530Z 2706/2806 14005KT P6SM FEW020
     FM271400 16011KT P6SM FEW020
     FM272300 09005KT P6SM FEW020=



000
FTUS42 TJSJ 270530
TAFJBQ
TAF
TJBQ 270530Z 2706/2806 17003KT P6SM SKC
     FM271400 02008KT P6SM FEW040
     FM272300 VRB03KT P6SM FEW040
      AMD NOT SKED TIL 271100=



000
FTUS42 TJSJ 270530
TAFNCM
TAF
TNCM 270530Z 2706/2806 VRB02KT P6SM FEW021
     FM271200 17008KT P6SM FEW022
     FM272300 VRB04KT P6SM FEW022=



000
FTUS42 TJSJ 270530
TAFJPS
TAF
TJPS 270530Z 2706/2806 05005KT P6SM FEW040
     FM271300 16010KT P6SM FEW030
     FM272200 VRB04KT P6SM FEW030
      AMD NOT SKED 2712/2803=



000
FTUS42 TJSJ 270530
TAFJBQ
TAF
TJBQ 270530Z 2706/2806 17003KT P6SM SKC
     FM271400 02008KT P6SM FEW040
     FM272300 VRB03KT P6SM FEW040
      AMD NOT SKED TIL 271100=



000
FTUS42 TJSJ 270530
TAFIST
TAF
TIST 270530Z 2706/2806 13008KT P6SM FEW018
     FM271400 16012KT P6SM FEW030
     FM272300 14005KT P6SM FEW025=



000
FTUS42 TJSJ 270530
TAFIST
TAF
TIST 270530Z 2706/2806 13008KT P6SM FEW018
     FM271400 16012KT P6SM FEW030
     FM272300 14005KT P6SM FEW025=



000
FTUS42 TJSJ 270530
TAFJSJ
TAF
TJSJ 270530Z 2706/2806 18004KT P6SM SKC
     FM271430 17011G20KT P6SM FEW030
     FM272230 18005KT P6SM FEW030=



000
FTUS42 TJSJ 270530
TAFJSJ
TAF
TJSJ 270530Z 2706/2806 18004KT P6SM SKC
     FM271430 17011G20KT P6SM FEW030
     FM272230 18005KT P6SM FEW030=



000
FTUS42 TJSJ 270530
TAFJMZ
TAF
TJMZ 270530Z 2706/2806 07004KT P6SM SKC
     FM271600 26010KT P6SM FEW040
     FM272200 VRB04KT P6SM FEW040
      AMD NOT SKED=



000
FTUS42 TJSJ 270530
TAFKPK
TAF
TKPK 270530Z 2706/2806 VRB03KT P6SM FEW022
     FM271200 18009KT P6SM FEW022
     FM272230 VRB04KT P6SM FEW024
      AMD NOT SKED TIL 271100=



000
FTUS42 TJSJ 270530
TAFISX
TAF
TISX 270530Z 2706/2806 14005KT P6SM FEW020
     FM271400 16011KT P6SM FEW020
     FM272300 09005KT P6SM FEW020=



000
FTUS42 TJSJ 270530
TAFNCM
TAF
TNCM 270530Z 2706/2806 VRB02KT P6SM FEW021
     FM271200 17008KT P6SM FEW022
     FM272300 VRB04KT P6SM FEW022=



000
FTUS42 TJSJ 270530
TAFJMZ
TAF
TJMZ 270530Z 2706/2806 07004KT P6SM SKC
     FM271600 26010KT P6SM FEW040
     FM272200 VRB04KT P6SM FEW040
      AMD NOT SKED=



000
FTUS42 TJSJ 270530
TAFKPK
TAF
TKPK 270530Z 2706/2806 VRB03KT P6SM FEW022
     FM271200 18009KT P6SM FEW022
     FM272230 VRB04KT P6SM FEW024
      AMD NOT SKED TIL 271100=



000
FTUS42 TJSJ 270530
TAFJPS
TAF
TJPS 270530Z 2706/2806 05005KT P6SM FEW040
     FM271300 16010KT P6SM FEW030
     FM272200 VRB04KT P6SM FEW030
      AMD NOT SKED 2712/2803=



000
FTUS42 TJSJ 262330
TAFNCM
TAF
TNCM 262330Z 2700/2724 VRB04KT P6SM FEW023
     FM271200 16010KT P6SM FEW022
     FM272300 VRB04KT P6SM SCT023=



000
FTUS42 TJSJ 262330
TAFJSJ
TAF
TJSJ 262330Z 2700/2724 VRB04KT P6SM FEW025 SCT050
     FM271300 17004KT P6SM SCT050
     FM272230 VRB06KT P6SM SCT040 BKN090=



000
FTUS42 TJSJ 262330
TAFJBQ
TAF
TJBQ 262330Z 2700/2724 10005KT P6SM FEW030
     FM271400 36010KT P6SM FEW030
     FM272300 VRB05KT P6SM FEW025
      AMD NOT SKED 2702/2711=



000
FTUS42 TJSJ 262330
TAFIST
TAF
TIST 262330Z 2700/2724 19006KT P6SM FEW024
     FM271400 15006KT P6SM FEW020
     FM272300 13006KT P6SM FEW020=



000
FTUS42 TJSJ 262330
TAFKPK
TAF
TKPK 262330Z 2700/2724 24005KT P6SM FEW022
     FM271200 12008KT P6SM FEW022
     FM272330 VRB04KT P6SM FEW025
      AMD NOT SKED 2702/2711=



000
FTUS42 TJSJ 262330
TAFJPS
TAF
TJPS 262330Z 2700/2724 16006KT P6SM FEW025
     FM271300 16010KT P6SM FEW030
     FM272300 VRB04KT P6SM FEW030=



000
FTUS42 TJSJ 262330
TAFISX
TAF
TISX 262330Z 2700/2724 18005KT P6SM FEW022
     FM271400 15006KT P6SM FEW020
     FM272300 VRB05KT P6SM FEW021=



000
FTUS42 TJSJ 262330
TAFJMZ
TAF
TJMZ 262330Z 2700/2724 VRB04KT P6SM FEW030
     FM271600 26007KT P6SM FEW040
     FM272200 VRB04KT P6SM FEW040
      AMD NOT SKED=



000
FTUS42 TJSJ 261903 AAA
TAFJPS
TAF AMD
TJPS 261903Z 2619/2718 16010KT P6SM FEW030
     FM262300 VRB04KT P6SM FEW030
     FM271300 16010KT P6SM FEW030
      AMD NOT SKED TIL 270300=



000
FTUS42 TJSJ 261903 AAB
TAFJSJ
TAF AMD
TJSJ 261903Z 2619/2718 17010G20KT P6SM FEW030
     FM262230 VRB06KT P6SM SCT040 BKN090
     FM271300 17004KT P6SM SCT050=



000
FTUS42 TJSJ 261903 AAB
TAFJSJ
TAF AMD
TJSJ 261903Z 2619/2718 17010G20KT P6SM FEW030
     FM262230 VRB06KT P6SM SCT040 BKN090
     FM271300 17004KT P6SM SCT050=



000
FTUS42 TJSJ 261902 AAA
TAFISX
TAF AMD
TISX 261902Z 2619/2718 15011KT P6SM FEW025
     FM262300 VRB05KT P6SM FEW021
     FM271400 15006KT P6SM FEW020=



000
FTUS42 TJSJ 261731
TAFNCM
TAF
TNCM 261731Z 2618/2718 VRB05KT P6SM FEW022
     FM271200 16008KT P6SM FEW022=



000
FTUS42 TJSJ 261731
TAFISX
TAF
TISX 261731Z 2618/2718 14011KT P6SM SCT025
     FM262300 VRB05KT P6SM FEW021
     FM271400 15006KT P6SM FEW020=



000
FTUS42 TJSJ 261731
TAFJSJ
TAF
TJSJ 261731Z 2618/2718 17010KT P6SM FEW030
     FM262230 VRB06KT P6SM SCT040 BKN090
     FM271300 17004KT P6SM SCT050=



000
FTUS42 TJSJ 261731
TAFIST
TAF
TIST 261731Z 2618/2718 18005KT P6SM SCT024
     FM262300 13006KT P6SM FEW020
     FM271400 15006KT P6SM FEW020=



000
FTUS42 TJSJ 261731
TAFKPK
TAF
TKPK 261731Z 2618/2718 18008KT P6SM FEW024
     FM262330 VRB04KT P6SM FEW025
     FM271200 12008KT P6SM FEW022
      AMD NOT SKED 2702/2711=



000
FTUS42 TJSJ 261731
TAFISX
TAF
TISX 261731Z 2618/2718 14011KT P6SM SCT025
     FM262300 VRB05KT P6SM FEW021
     FM271400 15006KT P6SM FEW020=



000
FTUS42 TJSJ 261731
TAFKPK
TAF
TKPK 261731Z 2618/2718 18008KT P6SM FEW024
     FM262330 VRB04KT P6SM FEW025
     FM271200 12008KT P6SM FEW022
      AMD NOT SKED 2702/2711=



000
FTUS42 TJSJ 261731
TAFNCM
TAF
TNCM 261731Z 2618/2718 VRB05KT P6SM FEW022
     FM271200 16008KT P6SM FEW022=



000
FTUS42 TJSJ 261731
TAFJSJ
TAF
TJSJ 261731Z 2618/2718 17010KT P6SM FEW030
     FM262230 VRB06KT P6SM SCT040 BKN090
     FM271300 17004KT P6SM SCT050=



000
FTUS42 TJSJ 261731
TAFJMZ
TAF
TJMZ 261731Z 2618/2718 26007KT P6SM FEW040
     FM262200 VRB04KT P6SM FEW040
     FM271600 26007KT P6SM FEW040
      AMD NOT SKED=



000
FTUS42 TJSJ 261731
TAFJPS
TAF
TJPS 261731Z 2618/2718 13010KT P6SM FEW030
     FM262300 VRB04KT P6SM FEW030
     FM271300 16010KT P6SM FEW030
      AMD NOT SKED TIL 270300=



000
FTUS42 TJSJ 261731
TAFIST
TAF
TIST 261731Z 2618/2718 18005KT P6SM SCT024
     FM262300 13006KT P6SM FEW020
     FM271400 15006KT P6SM FEW020=



000
FTUS42 TJSJ 261731
TAFJBQ
TAF
TJBQ 261731Z 2618/2718 06007KT P6SM FEW030
     FM262300 VRB05KT P6SM FEW025
     FM271400 36010KT P6SM FEW030
      AMD NOT SKED 2702/2711=



000
FTUS42 TJSJ 261731
TAFJPS
TAF
TJPS 261731Z 2618/2718 13010KT P6SM FEW030
     FM262300 VRB04KT P6SM FEW030
     FM271300 16010KT P6SM FEW030
      AMD NOT SKED TIL 270300=



000
FTUS42 TJSJ 261731
TAFJMZ
TAF
TJMZ 261731Z 2618/2718 26007KT P6SM FEW040
     FM262200 VRB04KT P6SM FEW040
     FM271600 26007KT P6SM FEW040
      AMD NOT SKED=



000
FTUS42 TJSJ 261731
TAFJBQ
TAF
TJBQ 261731Z 2618/2718 06007KT P6SM FEW030
     FM262300 VRB05KT P6SM FEW025
     FM271400 36010KT P6SM FEW030
      AMD NOT SKED 2702/2711=



000
FTUS42 TJSJ 261629 AAA
TAFJSJ
TAF AMD
TJSJ 261629Z 2616/2712 17010KT P6SM FEW030
     FM262000 22006KT P6SM SCT040 BKN090
     FM262300 18004KT P6SM SCT050=



000
FTUS42 TJSJ 261133
TAFISX
TAF
TISX 261133Z 2612/2712 15005KT P6SM SCT019
     FM261300 14011KT P6SM SCT025
     FM262300 14005KT P6SM FEW021=



000
FTUS42 TJSJ 261133
TAFIST
TAF
TIST 261133Z 2612/2712 16008KT P6SM FEW025
     FM261800 18005KT P6SM SCT024 SCT035 BKN050
     FM262300 15006KT P6SM FEW020 FEW025=



000
FTUS42 TJSJ 261133
TAFJSJ
TAF
TJSJ 261133Z 2612/2712 21003KT P6SM FEW028
     FM261430 08010KT P6SM FEW030
     FM262000 22006KT P6SM SCT040 BKN090
     FM262300 18004KT P6SM SCT050=



000
FTUS42 TJSJ 261133
TAFJPS
TAF
TJPS 261133Z 2612/2712 00000KT P6SM SKC
     FM261500 19010KT P6SM FEW030 FEW060
     FM262300 00000KT P6SM FEW030
      AMD NOT SKED TIL 270300=



000
FTUS42 TJSJ 261133
TAFJMZ
TAF
TJMZ 261133Z 2612/2712 VRB04KT P6SM FEW030
     FM261530 27010KT P6SM SCT025 SCT040
     FM261730 26007KT P6SM VCSH BKN040
     FM262200 12003KT P6SM FEW040
      AMD NOT SKED=



000
FTUS42 TJSJ 261133
TAFKPK
TAF
TKPK 261133Z 2612/2712 00000KT P6SM FEW020
     FM261400 18008KT P6SM FEW024
     FM262300 20004KT P6SM FEW025
      AMD NOT SKED 2702/2711=



000
FTUS42 TJSJ 261133
TAFJBQ
TAF
TJBQ 261133Z 2612/2712 00000KT P6SM SKC
     FM261400 35007KT P6SM SCT030
     FM261930 29008KT P6SM VCSH SCT020 SCT030 BKN050
     FM262300 34005KT P6SM SCT025
      AMD NOT SKED 2702/2711=



000
FTUS42 TJSJ 261133
TAFNCM
TAF
TNCM 261133Z 2612/2712 VRB02KT P6SM FEW019
     FM261300 15006KT P6SM FEW022=



000
FTUS42 TJSJ 261133
TAFNCM
TAF
TNCM 261133Z 2612/2712 VRB02KT P6SM FEW019
     FM261300 15006KT P6SM FEW022=



000
FTUS42 TJSJ 261133
TAFIST
TAF
TIST 261133Z 2612/2712 16008KT P6SM FEW025
     FM261800 18005KT P6SM SCT024 SCT035 BKN050
     FM262300 15006KT P6SM FEW020 FEW025=



000
FTUS42 TJSJ 261133
TAFJSJ
TAF
TJSJ 261133Z 2612/2712 21003KT P6SM FEW028
     FM261430 08010KT P6SM FEW030
     FM262000 22006KT P6SM SCT040 BKN090
     FM262300 18004KT P6SM SCT050=



000
FTUS42 TJSJ 261133
TAFISX
TAF
TISX 261133Z 2612/2712 15005KT P6SM SCT019
     FM261300 14011KT P6SM SCT025
     FM262300 14005KT P6SM FEW021=



000
FTUS42 TJSJ 261133
TAFJMZ
TAF
TJMZ 261133Z 2612/2712 VRB04KT P6SM FEW030
     FM261530 27010KT P6SM SCT025 SCT040
     FM261730 26007KT P6SM VCSH BKN040
     FM262200 12003KT P6SM FEW040
      AMD NOT SKED=



000
FTUS42 TJSJ 261133
TAFJPS
TAF
TJPS 261133Z 2612/2712 00000KT P6SM SKC
     FM261500 19010KT P6SM FEW030 FEW060
     FM262300 00000KT P6SM FEW030
      AMD NOT SKED TIL 270300=



000
FTUS42 TJSJ 261133
TAFJBQ
TAF
TJBQ 261133Z 2612/2712 00000KT P6SM SKC
     FM261400 35007KT P6SM SCT030
     FM261930 29008KT P6SM VCSH SCT020 SCT030 BKN050
     FM262300 34005KT P6SM SCT025
      AMD NOT SKED 2702/2711=



000
FTUS42 TJSJ 261133
TAFKPK
TAF
TKPK 261133Z 2612/2712 00000KT P6SM FEW020
     FM261400 18008KT P6SM FEW024
     FM262300 20004KT P6SM FEW025
      AMD NOT SKED 2702/2711=



000
FTUS42 TJSJ 260728 AAA
TAFIST
TAF AMD
TIST 260728Z 2607/2706 16007KT P6SM VCSH FEW018 FEW025
      TEMPO 2609/2611 SCT018 BKN025
     FM261300 19010KT P6SM SCT025
     FM261800 18005KT P6SM SCT024 SCT035 BKN050
     FM262300 15006KT P6SM FEW020 FEW025=



000
FTUS42 TJSJ 260728 AAA
TAFIST
TAF AMD
TIST 260728Z 2607/2706 16007KT P6SM VCSH FEW018 FEW025
      TEMPO 2609/2611 SCT018 BKN025
     FM261300 19010KT P6SM SCT025
     FM261800 18005KT P6SM SCT024 SCT035 BKN050
     FM262300 15006KT P6SM FEW020 FEW025=



000
FTUS42 TJSJ 260524
TAFJMZ
TAF
TJMZ 260524Z 2606/2706 VRB04KT P6SM FEW030
     FM261530 27010KT P6SM SCT025 SCT040
     FM261730 26007KT P6SM VCSH BKN040
     FM262200 12003KT P6SM FEW040
      AMD NOT SKED=



000
FTUS42 TJSJ 260524
TAFJSJ
TAF
TJSJ 260524Z 2606/2706 21003KT P6SM FEW080
     FM261300 08012KT P6SM SCT025
     FM262000 22006KT P6SM SCT040 BKN090
     FM262300 18004KT P6SM SCT050=



000
FTUS42 TJSJ 260524
TAFJBQ
TAF
TJBQ 260524Z 2606/2706 00000KT P6SM FEW025 FEW050
     FM261400 35007KT P6SM SCT025
     FM261930 29008KT P6SM VCSH SCT020 SCT030 BKN050
     FM262300 34005KT P6SM SCT025
      AMD NOT SKED TIL 261100=



000
FTUS42 TJSJ 260524
TAFJMZ
TAF
TJMZ 260524Z 2606/2706 VRB04KT P6SM FEW030
     FM261530 27010KT P6SM SCT025 SCT040
     FM261730 26007KT P6SM VCSH BKN040
     FM262200 12003KT P6SM FEW040
      AMD NOT SKED=



000
FTUS42 TJSJ 260524
TAFISX
TAF
TISX 260524Z 2606/2706 15005KT P6SM SCT019
     FM261300 14011KT P6SM SCT025
     FM262300 14005KT P6SM FEW021=



000
FTUS42 TJSJ 260524
TAFIST
TAF
TIST 260524Z 2606/2706 16007KT P6SM FEW018 FEW025
     FM261300 19010KT P6SM SCT025
     FM261800 18005KT P6SM SCT024 SCT035 BKN050
     FM262300 15006KT P6SM FEW020 FEW025=



000
FTUS42 TJSJ 260524
TAFKPK
TAF
TKPK 260524Z 2606/2706 00000KT P6SM FEW024
     FM261400 18008KT P6SM FEW024
      AMD NOT SKED TIL 261100=



000
FTUS42 TJSJ 260524
TAFNCM
TAF
TNCM 260524Z 2606/2706 VRB02KT P6SM FEW018
     FM261300 15006KT P6SM FEW022=



000
FTUS42 TJSJ 260524
TAFJPS
TAF
TJPS 260524Z 2606/2706 00000KT P6SM SKC
     FM261500 19010KT P6SM FEW030 FEW060
     FM262300 00000KT P6SM FEW030=



000
FTUS42 TJSJ 252330
TAFJSJ
TAF
TJSJ 252330Z 2600/2624 16006KT P6SM FEW026 SCT060
     FM261300 08012KT P6SM SCT025
     FM262300 10006KT P6SM SCT030=



000
FTUS42 TJSJ 252330
TAFISX
TAF
TISX 252330Z 2600/2624 15006KT P6SM FEW022
     FM261300 13013KT P6SM SCT025
     FM262300 09006KT P6SM FEW025=



000
FTUS42 TJSJ 252330
TAFJPS
TAF
TJPS 252330Z 2600/2624 14005KT P6SM FEW030
     FM261500 17012KT P6SM FEW030 SCT060
     FM262300 09007KT P6SM FEW030=



000
FTUS42 TJSJ 252330
TAFKPK
TAF
TKPK 252330Z 2600/2624 VRB04KT P6SM FEW024
     FM261300 16008KT P6SM VCSH SCT022
     FM262300 10008KT P6SM SCT022
      AMD NOT SKED 2602/2611=



000
FTUS42 TJSJ 252330
TAFJMZ
TAF
TJMZ 252330Z 2600/2624 VRB04KT P6SM FEW030
     FM261530 27010KT P6SM SCT025 SCT040
     FM262200 06006KT P6SM SCT025 SCT040
      AMD NOT SKED=



000
FTUS42 TJSJ 252330
TAFNCM
TAF
TNCM 252330Z 2600/2624 VRB04KT P6SM FEW022
     FM261300 14008KT P6SM VCSH SCT018 SCT040
     FM262200 10003KT P6SM FEW022 SCT040=



000
FTUS42 TJSJ 252330
TAFIST
TAF
TIST 252330Z 2600/2624 12005KT P6SM FEW025
     FM261300 14012KT P6SM SCT025
     FM262300 10008KT P6SM FEW025=



000
FTUS42 TJSJ 252330
TAFJBQ
TAF
TJBQ 252330Z 2600/2624 VRB04KT P6SM SCT025 SCT050
     FM261400 08013KT P6SM SCT025
     FM262300 10008KT P6SM SCT025
      AMD NOT SKED 2602/2611=



000
FTUS42 TJSJ 252330
TAFJSJ
TAF
TJSJ 252330Z 2600/2624 16006KT P6SM FEW026 SCT060
     FM261300 08012KT P6SM SCT025
     FM262300 10006KT P6SM SCT030=



000
FTUS42 TJSJ 251901 AAA
TAFISX
TAF AMD
TISX 251901Z 2519/2618 15013KT P6SM SCT025
     FM252300 09006KT P6SM FEW025
     FM261300 13013KT P6SM SCT025=



000
FTUS42 TJSJ 251800 AAA
TAFIST
TAF AMD
TIST 251800Z 2518/2618 15010KT P6SM SCT025
      TEMPO 2518/2519 6SM -SHRA BKN050
     FM252300 10008KT P6SM FEW025
     FM261300 14012KT P6SM SCT025=



000
FTUS42 TJSJ 251800 AAA
TAFIST
TAF AMD
TIST 251800Z 2518/2618 15010KT P6SM SCT025
      TEMPO 2518/2519 6SM -SHRA BKN050
     FM252300 10008KT P6SM FEW025
     FM261300 14012KT P6SM SCT025=



000
FTUS42 TJSJ 251740
TAFJPS
TAF
TJPS 251740Z 2518/2618 17012KT P6SM FEW030 SCT060
     FM252300 09007KT P6SM FEW030
     FM261500 17012KT P6SM FEW030 SCT060
      AMD NOT SKED TIL 260300=



000
FTUS42 TJSJ 251740
TAFISX
TAF
TISX 251740Z 2518/2618 14013KT P6SM SCT025
     FM252300 09006KT P6SM FEW025
     FM261300 13013KT P6SM SCT025=



000
FTUS42 TJSJ 251740
TAFKPK
TAF
TKPK 251740Z 2518/2618 19010KT P6SM SCT025
     FM252300 10008KT P6SM SCT022
      AMD NOT SKED 2602/2611=



000
FTUS42 TJSJ 251740
TAFJBQ
TAF
TJBQ 251740Z 2518/2618 36010KT P6SM VCSH SCT025
     FM252300 10008KT P6SM SCT025
     FM261400 08013KT P6SM SCT025
      AMD NOT SKED 2602/2611=



000
FTUS42 TJSJ 251740
TAFJMZ
TAF
TJMZ 251740Z 2518/2618 27010KT P6SM VCSH SCT025
     FM252200 06006KT P6SM SCT025 SCT040
     FM261530 27010KT P6SM SCT025 SCT040
      AMD NOT SKED=



000
FTUS42 TJSJ 251740
TAFJSJ
TAF
TJSJ 251740Z 2518/2618 08012KT P6SM VCSH FEW030 SCT100
     FM252300 10006KT P6SM SCT030
     FM261300 08012KT P6SM SCT025=



000
FTUS42 TJSJ 251740
TAFJMZ
TAF
TJMZ 251740Z 2518/2618 27010KT P6SM VCSH SCT025
     FM252200 06006KT P6SM SCT025 SCT040
     FM261530 27010KT P6SM SCT025 SCT040
      AMD NOT SKED=



000
FTUS42 TJSJ 251740
TAFIST
TAF
TIST 251740Z 2518/2618 15010KT P6SM SCT025
     FM252300 10008KT P6SM FEW025
     FM261300 14012KT P6SM SCT025=



000
FTUS42 TJSJ 251740
TAFJPS
TAF
TJPS 251740Z 2518/2618 17012KT P6SM FEW030 SCT060
     FM252300 09007KT P6SM FEW030
     FM261500 17012KT P6SM FEW030 SCT060
      AMD NOT SKED TIL 260300=



000
FTUS42 TJSJ 251740
TAFISX
TAF
TISX 251740Z 2518/2618 14013KT P6SM SCT025
     FM252300 09006KT P6SM FEW025
     FM261300 13013KT P6SM SCT025=



000
FTUS42 TJSJ 251740
TAFJBQ
TAF
TJBQ 251740Z 2518/2618 36010KT P6SM VCSH SCT025
     FM252300 10008KT P6SM SCT025
     FM261400 08013KT P6SM SCT025
      AMD NOT SKED 2602/2611=



000
FTUS42 TJSJ 251740
TAFKPK
TAF
TKPK 251740Z 2518/2618 19010KT P6SM SCT025
     FM252300 10008KT P6SM SCT022
      AMD NOT SKED 2602/2611=



000
FTUS42 TJSJ 251740
TAFNCM
TAF
TNCM 251740Z 2518/2618 15010KT P6SM SCT021=



000
FTUS42 TJSJ 251740
TAFIST
TAF
TIST 251740Z 2518/2618 15010KT P6SM SCT025
     FM252300 10008KT P6SM FEW025
     FM261300 14012KT P6SM SCT025=



000
FTUS42 TJSJ 251740
TAFJSJ
TAF
TJSJ 251740Z 2518/2618 08012KT P6SM VCSH FEW030 SCT100
     FM252300 10006KT P6SM SCT030
     FM261300 08012KT P6SM SCT025=



000
FTUS42 TJSJ 251740
TAFNCM
TAF
TNCM 251740Z 2518/2618 15010KT P6SM SCT021=



000
FTUS42 TJSJ 251140
TAFIST
TAF
TIST 251140Z 2512/2612 VRB05KT P6SM FEW019 SCT026 SCT035
     FM251400 16009KT P6SM FEW040 SCT070
     FM252200 11004KT P6SM FEW040 SCT070=



000
FTUS42 TJSJ 251140
TAFJBQ
TAF
TJBQ 251140Z 2512/2612 13003KT P6SM SCT060
     FM251300 03008KT P6SM SCT045
     FM251800 12010KT P6SM VCSH SCT018 BKN040 BKN080
     FM260200 13003KT P6SM SCT020 SCT070
      AMD NOT SKED 2602/2611=



000
FTUS42 TJSJ 251140
TAFISX
TAF
TISX 251140Z 2512/2612 VRB05KT P6SM VCSH SCT020
     FM251400 14008KT P6SM FEW040 SCT070
     FM252200 VRB04KT P6SM FEW040=



000
FTUS42 TJSJ 251140
TAFNCM
TAF
TNCM 251140Z 2512/2612 00000KT P6SM SCT017 BKN040
     FM251300 14008KT P6SM VCSH SCT018 SCT040
     FM252200 10003KT P6SM FEW022 SCT040=



000
FTUS42 TJSJ 251140
TAFJSJ
TAF
TJSJ 251140Z 2512/2612 16003KT P6SM FEW027 FEW100
     FM251500 08008KT P6SM FEW035 SCT080
     FM252200 15006KT P6SM FEW040 BKN070
     FM260800 15002KT P6SM FEW030=



000
FTUS42 TJSJ 251140
TAFJMZ
TAF
TJMZ 251140Z 2512/2612 10005KT P6SM SCT060
     FM251500 14011KT P6SM SCT040
     FM252200 08003KT P6SM FEW070
      AMD NOT SKED TIL 251600=



000
FTUS42 TJSJ 251140
TAFJPS
TAF
TJPS 251140Z 2512/2612 18005KT P6SM FEW030
     FM251300 19010G18KT P6SM FEW030
     FM252200 00000KT P6SM SKC
      AMD NOT SKED TIL 260300=



000
FTUS42 TJSJ 251140
TAFKPK
TAF
TKPK 251140Z 2512/2612 00000KT P6SM FEW019
     FM251300 16008KT P6SM VCSH SCT022
     FM252200 15006KT P6SM FEW040 BKN070
     FM260800 15002KT P6SM FEW030
      AMD NOT SKED 2602/2611=



    US Dept of Commerce
    National Oceanic and Atmospheric Administration
    National Weather Service
    1325 East West Highway
    Silver Spring, MD 20910
    Page Author: NWS Internet Services Team
Disclaimer
Information Quality
Credits
Glossary
Privacy Policy
Freedom of Information Act (FOIA)
About Us
Career Opportunities